Time;durP1;ratioP1;P1;durP2;ratioP2;P2;SDS_P1;SDS_P2;PMS_P1;PMS_P2;Temp;Humidity;BMP_temperature;BMP_pressure;BME280_temperature;BME280_humidity;BME280_pressure;Samples;Min_cycle;Max_cycle;Signal;HPM_P1;HPM_P2
2021/09/09 00:01:49;;;;;;;3.92;2.40;;;;;;;30.62;23.14;98642.81;5066796;28;20078;-86
2021/09/09 00:04:15;;;;;;;3.53;2.30;;;;;;;30.74;22.96;98641.16;5053592;28;20051;-86
2021/09/09 00:06:41;;;;;;;3.00;1.88;;;;;;;30.73;22.90;98639.59;5065457;28;20032;-86
2021/09/09 00:09:07;;;;;;;2.97;2.15;;;;;;;30.65;23.04;98641.09;5068594;28;20400;-86
2021/09/09 00:11:33;;;;;;;5.55;1.85;;;;;;;30.80;22.62;98639.28;5063486;28;20029;-86
2021/09/09 00:13:59;;;;;;;3.83;2.03;;;;;;;30.67;22.31;98635.75;5063678;28;20088;-86
2021/09/09 00:16:25;;;;;;;2.30;1.77;;;;;;;30.73;22.16;98637.53;5062036;28;20020;-86
2021/09/09 00:18:51;;;;;;;3.03;1.98;;;;;;;30.59;22.51;98634.47;5062442;28;20033;-87
2021/09/09 00:21:17;;;;;;;2.97;1.77;;;;;;;30.43;22.60;98637.56;5071452;28;20024;-86
2021/09/09 00:23:43;;;;;;;2.35;1.92;;;;;;;30.45;22.81;98637.88;5063207;28;20033;-86
2021/09/09 00:26:09;;;;;;;2.60;1.77;;;;;;;30.29;23.29;98636.03;5071590;28;20044;-86
2021/09/09 00:28:35;;;;;;;2.30;1.55;;;;;;;30.22;23.49;98644.00;5069899;28;20052;-86
2021/09/09 00:31:02;;;;;;;3.28;1.88;;;;;;;30.12;23.06;98633.84;5065113;28;20036;-86
2021/09/09 00:33:27;;;;;;;2.22;1.77;;;;;;;29.89;23.45;98632.28;5067124;28;20130;-86
2021/09/09 00:35:54;;;;;;;3.42;2.05;;;;;;;30.08;23.24;98634.00;5071726;28;20040;-86
2021/09/09 00:38:20;;;;;;;3.35;1.95;;;;;;;30.14;23.02;98637.00;5068046;28;20043;-86
2021/09/09 00:40:46;;;;;;;2.22;1.70;;;;;;;30.24;22.91;98628.13;5068719;28;20067;-86
2021/09/09 00:43:12;;;;;;;5.28;2.47;;;;;;;30.19;23.07;98622.25;5066617;28;20476;-87
2021/09/09 00:45:38;;;;;;;3.08;2.22;;;;;;;30.40;22.99;98629.97;5070650;28;20025;-86
2021/09/09 00:48:04;;;;;;;3.63;1.95;;;;;;;30.58;22.54;98630.84;5065887;28;20028;-86
2021/09/09 00:50:30;;;;;;;2.65;2.15;;;;;;;30.59;23.42;98637.31;5063135;28;20040;-86
2021/09/09 00:52:56;;;;;;;1.60;1.50;;;;;;;30.50;22.71;98628.78;5063730;28;20025;-87
2021/09/09 00:55:22;;;;;;;2.53;1.50;;;;;;;30.59;22.17;98628.81;5058576;28;20036;-87
2021/09/09 00:57:49;;;;;;;3.10;2.10;;;;;;;30.46;22.59;98637.41;5070001;28;20028;-86
2021/09/09 01:00:16;;;;;;;2.55;1.88;;;;;;;30.40;22.74;98636.44;5061277;28;20140;-87
2021/09/09 01:02:42;;;;;;;1.92;1.70;;;;;;;30.56;22.48;98638.22;5066692;28;20118;-87
2021/09/09 01:05:09;;;;;;;4.30;1.85;;;;;;;30.39;22.86;98634.03;5065793;28;20744;-87
2021/09/09 01:07:35;;;;;;;4.60;2.20;;;;;;;30.40;22.66;98633.59;5069599;28;20059;-87
2021/09/09 01:10:01;;;;;;;2.95;1.45;;;;;;;30.54;22.50;98635.88;5063374;28;20051;-87
2021/09/09 01:12:27;;;;;;;7.05;1.98;;;;;;;30.56;22.17;98636.19;5068149;28;20090;-87
2021/09/09 01:14:53;;;;;;;4.15;2.15;;;;;;;30.72;22.05;98644.47;5066587;28;20033;-87
2021/09/09 01:17:20;;;;;;;2.40;1.75;;;;;;;30.51;22.01;98636.81;5061357;28;20073;-87
2021/09/09 01:19:46;;;;;;;3.08;1.90;;;;;;;30.08;22.63;98642.50;5064011;28;20059;-87
2021/09/09 01:22:12;;;;;;;2.85;1.83;;;;;;;29.99;23.20;98642.44;5063238;28;20059;-87
2021/09/09 01:24:38;;;;;;;3.22;1.90;;;;;;;29.92;22.93;98637.03;5067002;28;20464;-86
2021/09/09 01:27:06;;;;;;;2.72;1.75;;;;;;;30.11;22.53;98638.72;5064148;28;20067;-87
2021/09/09 01:29:36;;;;;;;3.08;1.98;;;;;;;30.21;22.41;98633.91;5063389;28;20056;-87
2021/09/09 01:32:04;;;;;;;2.22;1.85;;;;;;;29.99;23.15;98628.28;5064815;28;20029;-87
2021/09/09 01:34:30;;;;;;;5.97;2.28;;;;;;;29.71;23.50;98634.97;5062635;28;20487;-87
2021/09/09 01:36:56;;;;;;;3.08;1.42;;;;;;;29.80;23.45;98637.88;5066890;28;20086;-87
2021/09/09 01:39:23;;;;;;;3.75;2.42;;;;;;;29.86;22.82;98633.22;5063070;28;20041;-87
2021/09/09 01:41:51;;;;;;;3.83;2.13;;;;;;;30.13;22.82;98641.13;5061338;28;20037;-86
2021/09/09 01:44:17;;;;;;;1.90;1.63;;;;;;;30.29;22.63;98636.03;5067177;28;20029;-87
2021/09/09 01:46:43;;;;;;;3.75;1.77;;;;;;;30.25;22.50;98635.34;5066389;28;20060;-86
2021/09/09 01:49:10;;;;;;;3.03;1.63;;;;;;;30.32;22.96;98637.91;5068427;28;20044;-86
2021/09/09 01:51:36;;;;;;;2.55;1.80;;;;;;;29.95;23.06;98636.91;5068334;28;20033;-86
2021/09/09 01:54:02;;;;;;;3.85;1.92;;;;;;;29.65;23.15;98633.94;5063709;28;20056;-86
2021/09/09 01:56:29;;;;;;;3.33;2.20;;;;;;;29.94;23.17;98634.53;5067377;28;20127;-87
2021/09/09 01:58:55;;;;;;;4.05;1.80;;;;;;;29.88;22.97;98636.38;5065888;28;20037;-86
2021/09/09 02:01:22;;;;;;;2.95;1.88;;;;;;;29.88;23.56;98628.66;5063965;28;20032;-86
2021/09/09 02:03:48;;;;;;;2.50;1.48;;;;;;;29.90;23.47;98631.03;5066437;28;20118;-86
2021/09/09 02:06:14;;;;;;;3.05;1.70;;;;;;;30.00;22.84;98639.16;5062795;28;20045;-86
2021/09/09 02:08:41;;;;;;;2.22;1.50;;;;;;;30.17;22.40;98644.59;5069077;28;20535;-86
2021/09/09 02:11:08;;;;;;;1.67;1.40;;;;;;;30.33;21.93;98641.56;5054307;28;20450;-86
2021/09/09 02:13:34;;;;;;;3.50;1.95;;;;;;;30.42;22.05;98638.78;5068554;28;20139;-87
2021/09/09 02:16:00;;;;;;;2.35;1.63;;;;;;;30.18;22.61;98634.88;5073624;28;20024;-87
2021/09/09 02:18:26;;;;;;;3.17;2.15;;;;;;;29.90;22.87;98633.84;5069434;28;20033;-86
2021/09/09 02:20:52;;;;;;;2.38;1.60;;;;;;;29.75;23.09;98635.63;5066793;28;20462;-86
2021/09/09 02:23:19;;;;;;;1.95;1.65;;;;;;;29.88;22.64;98625.03;5069503;28;20035;-86
2021/09/09 02:25:45;;;;;;;1.83;1.60;;;;;;;30.17;21.88;98633.25;5065035;28;20029;-86
2021/09/09 02:28:11;;;;;;;1.95;1.60;;;;;;;30.39;22.04;98622.72;5054992;28;20066;-86
2021/09/09 02:30:37;;;;;;;2.13;1.88;;;;;;;29.93;22.82;98619.59;5071814;28;20025;-86
2021/09/09 02:33:03;;;;;;;2.58;1.80;;;;;;;29.15;23.37;98620.75;5064670;28;20040;-86
2021/09/09 02:35:48;;;;;;;2.90;1.85;;;;;;;29.23;23.56;98622.88;5068127;28;20062;-86
2021/09/09 02:38:15;;;;;;;2.88;1.75;;;;;;;29.52;22.95;98617.03;5072246;28;20107;-86
2021/09/09 02:40:41;;;;;;;2.00;1.80;;;;;;;29.77;22.58;98616.16;5068591;28;20059;-86
2021/09/09 02:43:07;;;;;;;2.10;1.40;;;;;;;30.08;22.36;98619.84;5069137;28;20025;-86
2021/09/09 02:45:34;;;;;;;2.85;1.90;;;;;;;30.25;22.47;98617.56;5066787;28;20115;-86
2021/09/09 02:48:02;;;;;;;2.10;1.45;;;;;;;30.24;22.26;98616.78;5063830;28;20037;-86
2021/09/09 02:50:29;;;;;;;2.45;1.88;;;;;;;29.93;22.80;98616.75;5069389;28;20460;-86
2021/09/09 02:52:55;;;;;;;3.60;1.65;;;;;;;29.73;22.89;98615.47;5071813;28;20025;-86
2021/09/09 02:55:21;;;;;;;2.50;1.98;;;;;;;29.87;22.48;98614.97;5067193;28;20064;-86
2021/09/09 02:57:47;;;;;;;5.57;1.42;;;;;;;30.00;22.74;98610.03;5064487;28;20067;-86
2021/09/09 03:00:14;;;;;;;2.72;1.52;;;;;;;29.80;22.67;98618.84;5068265;28;20025;-86
2021/09/09 03:02:40;;;;;;;1.80;1.55;;;;;;;29.96;22.59;98615.03;5067881;28;20081;-86
2021/09/09 03:05:08;;;;;;;2.15;1.73;;;;;;;29.87;22.54;98612.91;5071473;28;20081;-86
2021/09/09 03:07:34;;;;;;;2.20;1.67;;;;;;;29.61;23.61;98608.63;5073889;28;20365;-86
2021/09/09 03:10:00;;;;;;;1.67;1.58;;;;;;;29.37;23.72;98613.91;5067372;28;20041;-86
2021/09/09 03:12:26;;;;;;;1.83;1.35;;;;;;;29.27;24.22;98612.22;5070477;28;20522;-86
2021/09/09 03:14:52;;;;;;;2.00;1.50;;;;;;;29.25;23.83;98611.09;5067515;28;20035;-86
2021/09/09 03:17:20;;;;;;;2.33;1.70;;;;;;;29.48;23.34;98610.69;5066131;28;20039;-86
2021/09/09 03:19:46;;;;;;;2.25;1.77;;;;;;;29.92;22.64;98609.50;5053499;28;20036;-86
2021/09/09 03:22:12;;;;;;;2.90;1.50;;;;;;;30.17;22.25;98619.91;5070765;28;20400;-86
2021/09/09 03:24:38;;;;;;;4.85;1.58;;;;;;;30.34;22.03;98620.50;5065593;28;20527;-86
2021/09/09 03:27:04;;;;;;;7.40;2.20;;;;;;;30.35;21.66;98622.06;5067163;28;20064;-86
2021/09/09 03:29:30;;;;;;;2.85;1.55;;;;;;;30.38;21.66;98629.66;5055444;28;20154;-86
2021/09/09 03:31:57;;;;;;;3.05;1.50;;;;;;;30.20;21.41;98621.78;5065734;28;20040;-86
2021/09/09 03:34:23;;;;;;;1.92;1.55;;;;;;;29.97;21.61;98623.06;5070147;28;20425;-86
2021/09/09 03:36:49;;;;;;;1.90;1.58;;;;;;;29.96;21.57;98627.16;5063390;28;20491;-86
2021/09/09 03:39:15;;;;;;;2.88;1.33;;;;;;;30.07;21.39;98619.06;5070180;28;20032;-86
2021/09/09 03:41:41;;;;;;;2.83;1.70;;;;;;;30.11;21.40;98616.06;5067425;28;20456;-86
2021/09/09 03:44:07;;;;;;;2.85;1.60;;;;;;;30.06;21.50;98611.00;5069800;28;20024;-86
2021/09/09 03:46:33;;;;;;;1.67;1.30;;;;;;;29.95;21.64;98611.41;5068373;28;20068;-86
2021/09/09 03:48:59;;;;;;;2.35;1.77;;;;;;;29.96;21.63;98613.00;5071514;28;20040;-86
2021/09/09 03:51:25;;;;;;;2.15;1.50;;;;;;;29.98;21.74;98612.53;5071969;28;20424;-86
2021/09/09 03:53:51;;;;;;;1.60;1.50;;;;;;;29.94;21.87;98617.56;5053213;28;20035;-86
2021/09/09 03:56:18;;;;;;;2.05;1.65;;;;;;;29.85;21.80;98615.41;5061391;28;20519;-86
2021/09/09 03:58:44;;;;;;;1.42;1.13;;;;;;;29.73;21.78;98618.31;5065867;28;20088;-85
2021/09/09 04:01:10;;;;;;;1.73;1.38;;;;;;;29.80;21.50;98612.41;5061049;28;20116;-86
2021/09/09 04:03:36;;;;;;;1.65;1.35;;;;;;;29.88;21.65;98620.16;5071649;28;20029;-86
2021/09/09 04:06:02;;;;;;;1.38;1.27;;;;;;;29.90;21.92;98612.00;5068937;28;20048;-86
2021/09/09 04:08:29;;;;;;;2.72;1.98;;;;;;;29.47;23.00;98617.63;5065998;28;20045;-86
2021/09/09 04:10:55;;;;;;;1.55;1.40;;;;;;;29.32;22.77;98613.69;5065409;28;20037;-86
2021/09/09 04:13:21;;;;;;;2.30;1.42;;;;;;;29.46;22.60;98610.38;5074544;28;20033;-86
2021/09/09 04:15:47;;;;;;;2.60;1.50;;;;;;;29.46;22.45;98612.41;5070568;28;20070;-85
2021/09/09 04:18:13;;;;;;;2.10;1.55;;;;;;;29.24;22.74;98618.03;5068810;28;20035;-85
2021/09/09 04:20:39;;;;;;;3.25;1.75;;;;;;;29.01;23.45;98621.22;5069933;28;20513;-85
2021/09/09 04:23:05;;;;;;;1.80;1.50;;;;;;;29.01;23.30;98613.50;5069565;28;20040;-88
2021/09/09 04:25:32;;;;;;;3.05;1.50;;;;;;;29.41;22.72;98620.22;5071545;28;20093;-86
2021/09/09 04:27:58;;;;;;;3.80;1.33;;;;;;;29.81;22.00;98616.81;5071242;28;20392;-86
2021/09/09 04:30:24;;;;;;;2.42;1.23;;;;;;;30.06;21.63;98611.00;5068345;28;20041;-85
2021/09/09 04:32:50;;;;;;;1.88;1.15;;;;;;;29.97;21.51;98617.41;5068250;28;20032;-86
2021/09/09 04:35:16;;;;;;;2.30;1.50;;;;;;;29.65;21.70;98625.47;5069213;28;20047;-85
2021/09/09 04:37:42;;;;;;;1.52;1.23;;;;;;;29.24;22.09;98632.94;5068184;28;20032;-86
2021/09/09 04:40:09;;;;;;;1.98;1.55;;;;;;;29.52;21.82;98630.38;5069445;28;20029;-83
2021/09/09 04:42:35;;;;;;;1.20;1.10;;;;;;;29.50;21.81;98630.06;5059371;28;20404;-85
2021/09/09 04:45:01;;;;;;;1.40;1.30;;;;;;;29.55;21.80;98626.63;5070342;28;20361;-85
2021/09/09 04:47:27;;;;;;;1.55;1.27;;;;;;;30.01;21.77;98622.94;5071945;28;20031;-85
2021/09/09 04:49:53;;;;;;;1.85;1.20;;;;;;;30.12;22.09;98626.16;5071412;28;20125;-83
2021/09/09 04:52:19;;;;;;;2.75;1.30;;;;;;;30.30;22.04;98623.44;5071603;28;20052;-83
2021/09/09 04:54:45;;;;;;;1.92;1.33;;;;;;;30.54;21.82;98618.88;5071806;28;20086;-83
2021/09/09 04:57:13;;;;;;;2.28;1.73;;;;;;;30.85;21.72;98616.00;5072024;28;20107;-82
2021/09/09 04:59:39;;;;;;;1.75;1.45;;;;;;;31.07;21.66;98619.53;5072140;28;20484;-82
2021/09/09 05:02:05;;;;;;;1.70;1.15;;;;;;;30.90;21.79;98617.47;5062579;28;20392;-82
2021/09/09 05:04:31;;;;;;;2.55;1.38;;;;;;;30.56;22.35;98612.72;5072338;28;20488;-82
2021/09/09 05:06:57;;;;;;;1.60;1.33;;;;;;;30.83;22.03;98609.22;5053956;28;20032;-82
2021/09/09 05:09:23;;;;;;;2.20;1.70;;;;;;;30.67;22.21;98615.91;5072491;28;20047;-82
2021/09/09 05:11:49;;;;;;;2.15;1.20;;;;;;;30.23;23.08;98611.56;5072489;28;20029;-82
2021/09/09 05:14:15;;;;;;;1.88;1.52;;;;;;;30.13;23.33;98605.06;5072722;28;20029;-82
2021/09/09 05:16:41;;;;;;;2.10;1.90;;;;;;;29.96;24.19;98617.88;5072144;28;20031;-83
2021/09/09 05:19:08;;;;;;;1.73;1.25;;;;;;;30.01;24.16;98611.63;5070916;28;20056;-82
2021/09/09 05:21:34;;;;;;;2.10;1.60;;;;;;;30.26;24.35;98611.44;5055824;28;20089;-83
2021/09/09 05:24:01;;;;;;;1.52;1.40;;;;;;;30.95;23.05;98611.19;5073050;28;20025;-83
2021/09/09 05:26:27;;;;;;;3.33;1.42;;;;;;;31.41;23.02;98610.00;5071891;28;20043;-84
2021/09/09 05:28:53;;;;;;;2.50;1.45;;;;;;;31.73;22.88;98606.56;5069170;28;20385;-85
2021/09/09 05:31:19;;;;;;;2.67;2.15;;;;;;;31.61;23.63;98601.03;5072552;28;20499;-85
2021/09/09 05:33:45;;;;;;;3.00;1.52;;;;;;;31.49;23.35;98594.25;5071259;28;20020;-85
2021/09/09 05:36:11;;;;;;;1.83;1.50;;;;;;;31.55;23.77;98595.22;5072858;28;20037;-85
2021/09/09 05:38:37;;;;;;;1.73;1.30;;;;;;;31.64;23.80;98600.88;5072483;28;20029;-85
2021/09/09 05:41:03;;;;;;;1.45;1.33;;;;;;;31.81;23.93;98604.19;5072459;28;20040;-85
2021/09/09 05:43:29;;;;;;;1.85;1.40;;;;;;;31.82;23.74;98605.75;5072946;28;20021;-85
2021/09/09 05:45:55;;;;;;;1.95;1.42;;;;;;;31.91;23.41;98603.69;5073379;28;20033;-85
2021/09/09 05:48:21;;;;;;;2.10;1.73;;;;;;;31.90;24.59;98596.44;5072722;28;20037;-85
2021/09/09 05:50:47;;;;;;;3.10;1.80;;;;;;;32.15;24.47;98594.53;5073102;28;20036;-85
2021/09/09 05:53:13;;;;;;;2.55;1.95;;;;;;;31.92;24.93;98593.91;5072987;28;20060;-85
2021/09/09 05:55:40;;;;;;;2.40;1.70;;;;;;;31.83;23.87;98601.66;5072938;28;20051;-85
2021/09/09 05:58:06;;;;;;;2.35;2.00;;;;;;;31.50;24.57;98595.84;5072976;28;20103;-85
2021/09/09 06:00:32;;;;;;;2.95;1.65;;;;;;;31.64;25.32;98594.41;5072807;28;20400;-85
2021/09/09 06:03:01;;;;;;;2.78;2.05;;;;;;;31.77;25.26;98598.66;5072806;28;20502;-85
2021/09/09 06:05:28;;;;;;;2.40;2.13;;;;;;;31.98;24.59;98591.25;5072904;28;20043;-85
2021/09/09 06:07:54;;;;;;;3.75;2.75;;;;;;;31.71;24.38;98594.09;5072480;28;20020;-85
2021/09/09 06:10:20;;;;;;;3.30;2.10;;;;;;;31.58;25.54;98597.09;5054496;28;20059;-85
2021/09/09 06:12:46;;;;;;;2.60;2.05;;;;;;;32.07;24.37;98588.38;5072654;28;20032;-86
2021/09/09 06:15:12;;;;;;;3.15;1.95;;;;;;;32.43;23.82;98588.28;5072721;28;20514;-85
2021/09/09 06:17:38;;;;;;;2.05;1.65;;;;;;;32.56;23.89;98591.72;5072180;28;20107;-85
2021/09/09 06:20:06;;;;;;;2.25;1.95;;;;;;;32.57;23.97;98587.63;5072219;28;20090;-86
2021/09/09 06:22:32;;;;;;;3.38;1.77;;;;;;;32.83;24.30;98585.13;5072465;28;20070;-85
2021/09/09 06:24:58;;;;;;;7.28;2.22;;;;;;;32.71;23.31;98589.00;5072417;28;20071;-85
2021/09/09 06:27:24;;;;;;;3.35;2.45;;;;;;;32.30;24.04;98593.38;5072631;28;20403;-85
2021/09/09 06:29:50;;;;;;;3.92;2.10;;;;;;;32.27;24.67;98587.88;5072496;28;20495;-85
2021/09/09 06:32:16;;;;;;;2.22;1.90;;;;;;;32.50;24.62;98598.56;5054008;28;20115;-85
2021/09/09 06:34:42;;;;;;;2.33;2.13;;;;;;;31.63;24.63;98595.66;5072535;28;20037;-86
2021/09/09 06:37:08;;;;;;;1.92;1.48;;;;;;;32.34;25.33;98593.22;5054766;28;20553;-86
2021/09/09 06:39:34;;;;;;;2.50;1.38;;;;;;;33.15;24.67;98592.88;5072657;28;20029;-85
2021/09/09 06:42:00;;;;;;;2.60;1.92;;;;;;;33.35;23.12;98598.72;5072582;28;20036;-85
2021/09/09 06:44:26;;;;;;;2.50;2.17;;;;;;;31.30;25.72;98593.41;5078665;28;20079;-85
2021/09/09 06:46:52;;;;;;;2.95;2.50;;;;;;;30.82;25.34;98588.56;5072921;28;20028;-86
2021/09/09 06:49:18;;;;;;;2.75;2.40;;;;;;;31.53;25.29;98588.44;5072102;28;20044;-85
2021/09/09 06:51:44;;;;;;;2.50;1.90;;;;;;;31.60;25.65;98588.88;5073556;28;20032;-85
2021/09/09 06:54:10;;;;;;;3.60;2.28;;;;;;;31.81;25.60;98587.91;5076060;28;20165;-85
2021/09/09 06:56:36;;;;;;;2.85;1.92;;;;;;;32.58;25.47;98589.19;5076093;28;20503;-86
2021/09/09 06:59:03;;;;;;;2.88;2.10;;;;;;;33.02;24.66;98588.69;5058107;28;20029;-86
2021/09/09 07:01:29;;;;;;;2.13;1.90;;;;;;;33.56;24.19;98594.00;5075471;28;20075;-85
2021/09/09 07:03:55;;;;;;;2.97;2.08;;;;;;;33.87;24.05;98585.03;5075840;28;20485;-85
2021/09/09 07:06:21;;;;;;;1.75;1.60;;;;;;;32.93;24.03;98588.72;5057623;28;20553;-84
2021/09/09 07:08:47;;;;;;;3.08;1.77;;;;;;;32.92;23.54;98590.78;5075697;28;20495;-84
2021/09/09 07:11:13;;;;;;;1.98;1.55;;;;;;;32.38;24.94;98585.28;5075643;28;20020;-84
2021/09/09 07:13:39;;;;;;;5.47;2.70;;;;;;;32.32;25.66;98590.88;5075783;28;20028;-84
2021/09/09 07:16:05;;;;;;;3.28;2.40;;;;;;;32.80;25.22;98583.25;5075482;28;20035;-85
2021/09/09 07:18:33;;;;;;;2.28;2.08;;;;;;;32.85;24.32;98585.44;5074287;28;20041;-85
2021/09/09 07:20:59;;;;;;;2.83;2.45;;;;;;;32.70;23.61;98587.41;5075057;28;20036;-84
2021/09/09 07:23:25;;;;;;;2.65;2.20;;;;;;;33.36;24.82;98593.84;5075458;28;20028;-84
2021/09/09 07:25:51;;;;;;;2.20;1.70;;;;;;;32.83;24.45;98592.88;5075255;28;20037;-84
2021/09/09 07:28:17;;;;;;;3.85;1.90;;;;;;;33.46;23.38;98592.50;5075548;28;20036;-84
2021/09/09 07:30:44;;;;;;;3.15;2.08;;;;;;;32.85;24.51;98587.50;5075048;28;20024;-85
2021/09/09 07:33:10;;;;;;;3.88;1.85;;;;;;;33.43;22.93;98593.47;5075390;28;20037;-84
2021/09/09 07:35:37;;;;;;;2.72;1.85;;;;;;;33.38;22.88;98594.91;5056991;28;20024;-85
2021/09/09 07:38:03;;;;;;;2.55;2.08;;;;;;;33.14;23.76;98593.38;5075206;28;20104;-84
2021/09/09 07:40:29;;;;;;;1.88;1.77;;;;;;;34.15;23.60;98589.22;5075017;28;20079;-84
2021/09/09 07:42:55;;;;;;;3.58;1.75;;;;;;;34.63;21.65;98586.94;5074874;28;20031;-85
2021/09/09 07:45:21;;;;;;;1.83;1.50;;;;;;;34.48;21.47;98586.94;5089799;28;20392;-85
2021/09/09 07:47:47;;;;;;;4.00;1.95;;;;;;;34.38;22.24;98587.56;5082502;28;20477;-85
2021/09/09 07:50:14;;;;;;;4.40;1.77;;;;;;;34.14;22.30;98587.66;5074841;28;20044;-85
2021/09/09 07:52:40;;;;;;;1.45;1.35;;;;;;;34.22;22.43;98591.66;5074692;28;20036;-85
2021/09/09 07:55:08;;;;;;;1.90;1.70;;;;;;;34.72;21.24;98589.69;5054930;28;20444;-84
2021/09/09 07:57:34;;;;;;;1.90;1.60;;;;;;;35.24;20.69;98587.88;5070791;28;20112;-84
2021/09/09 08:00:01;;;;;;;1.95;1.40;;;;;;;34.98;21.58;98584.88;5074383;28;20021;-84
2021/09/09 08:02:27;;;;;;;1.50;1.40;;;;;;;34.59;21.29;98587.13;5074446;28;20504;-85
2021/09/09 08:04:53;;;;;;;5.50;1.67;;;;;;;35.05;21.71;98592.28;5074700;28;20032;-85
2021/09/09 08:07:19;;;;;;;2.10;1.90;;;;;;;34.55;21.41;98583.72;5074681;28;20350;-85
2021/09/09 08:09:45;;;;;;;2.33;1.38;;;;;;;34.69;20.73;98585.75;5074404;28;20036;-84
2021/09/09 08:12:11;;;;;;;2.40;1.60;;;;;;;34.80;20.58;98582.28;5073721;28;20021;-85
2021/09/09 08:14:37;;;;;;;3.15;1.67;;;;;;;34.92;21.49;98586.06;5073827;28;20051;-85
2021/09/09 08:17:03;;;;;;;2.58;1.77;;;;;;;34.95;21.08;98580.16;5073744;28;20479;-85
2021/09/09 08:19:29;;;;;;;1.70;1.30;;;;;;;34.97;20.86;98579.66;5073798;28;20087;-85
2021/09/09 08:21:55;;;;;;;2.03;1.75;;;;;;;34.50;20.88;98575.81;5074649;28;20050;-85
2021/09/09 08:24:21;;;;;;;2.88;2.10;;;;;;;34.58;21.85;98579.88;5074428;28;20110;-85
2021/09/09 08:26:48;;;;;;;3.03;1.85;;;;;;;34.85;20.67;98577.94;5056100;28;20033;-85
2021/09/09 08:29:14;;;;;;;1.95;1.75;;;;;;;34.56;19.46;98579.59;5073946;28;20036;-85
2021/09/09 08:31:40;;;;;;;1.48;1.38;;;;;;;34.82;21.06;98571.16;5074125;28;20044;-85
2021/09/09 08:34:06;;;;;;;2.50;1.90;;;;;;;35.05;20.71;98569.44;5073918;28;20090;-85
2021/09/09 08:36:32;;;;;;;1.77;1.60;;;;;;;35.01;21.27;98571.69;5074238;28;20032;-85
2021/09/09 08:38:58;;;;;;;2.17;1.70;;;;;;;35.33;20.28;98567.75;5074656;28;20036;-85
2021/09/09 08:41:24;;;;;;;1.95;1.65;;;;;;;35.74;19.90;98571.34;5055858;28;20036;-85
2021/09/09 08:43:50;;;;;;;1.88;1.40;;;;;;;35.70;20.14;98567.94;5074238;28;20037;-85
2021/09/09 08:46:17;;;;;;;1.88;1.30;;;;;;;35.52;20.06;98569.03;5082484;28;20063;-85
2021/09/09 08:48:48;;;;;;;5.00;1.95;;;;;;;35.43;20.94;98564.22;5073621;28;20071;-85
2021/09/09 08:51:16;;;;;;;3.63;1.70;;;;;;;34.55;21.21;98566.59;5073683;28;20036;-85
2021/09/09 08:53:43;;;;;;;2.90;1.70;;;;;;;34.88;21.00;98562.66;5073904;28;20033;-85
2021/09/09 08:56:12;;;;;;;1.73;1.55;;;;;;;35.51;20.64;98561.75;5073776;28;20032;-85
2021/09/09 08:58:38;;;;;;;2.10;1.70;;;;;;;35.55;20.85;98567.22;5073329;28;20115;-85
2021/09/09 09:01:07;;;;;;;1.92;1.50;;;;;;;35.53;19.87;98567.75;5073595;28;20028;-85
2021/09/09 09:03:53;;;;;;;2.67;1.42;;;;;;;36.22;19.44;98551.59;5055768;28;20120;-85
2021/09/09 09:06:22;;;;;;;2.50;1.52;;;;;;;36.11;20.29;98552.28;5072574;28;20527;-85
2021/09/09 09:09:00;;;;;;;2.35;1.88;;;;;;;35.86;19.30;98561.63;5073346;28;20040;-85
2021/09/09 09:11:32;;;;;;;2.80;1.65;;;;;;;36.50;19.40;98550.53;5073344;28;20074;-85
2021/09/09 09:13:59;;;;;;;1.75;1.23;;;;;;;35.82;19.58;98555.34;5072900;28;20036;-85
2021/09/09 09:16:26;;;;;;;2.17;1.50;;;;;;;36.06;19.14;98550.94;5073133;28;20020;-85
2021/09/09 09:18:53;;;;;;;2.78;1.77;;;;;;;35.68;19.78;98554.16;5072771;28;20040;-86
2021/09/09 09:21:20;;;;;;;2.10;1.40;;;;;;;36.17;20.07;98540.88;5073277;28;20025;-85
2021/09/09 09:23:48;;;;;;;2.08;1.50;;;;;;;36.02;19.96;98550.38;5073377;28;20089;-85
2021/09/09 09:26:14;;;;;;;1.75;1.60;;;;;;;36.43;19.33;98541.63;5072954;28;20029;-85
2021/09/09 09:29:00;;;;;;;1.65;1.45;;;;;;;36.90;18.89;98551.63;5073597;28;20391;-85
2021/09/09 09:31:29;;;;;;;1.80;1.60;;;;;;;36.11;18.63;98546.56;5073267;28;20101;-85
2021/09/09 09:34:00;;;;;;;1.67;1.33;;;;;;;36.56;19.47;98547.72;5073087;28;20032;-85
2021/09/09 09:36:31;;;;;;;1.80;1.67;;;;;;;37.16;18.64;98550.22;5073138;28;20136;-85
2021/09/09 09:39:15;;;;;;;1.90;1.40;;;;;;;37.10;17.59;98545.75;5073232;28;20440;-85
2021/09/09 09:41:53;;;;;;;1.52;1.38;;;;;;;37.26;18.25;98551.56;5072753;28;20029;-85
2021/09/09 09:44:34;;;;;;;2.15;1.50;;;;;;;37.16;18.11;98535.09;5073067;28;20561;-85
2021/09/09 09:47:19;;;;;;;1.67;1.33;;;;;;;37.44;17.57;98541.75;5073393;28;20040;-85
2021/09/09 09:49:47;;;;;;;2.08;1.13;;;;;;;37.72;17.14;98548.34;5072942;28;20104;-85
2021/09/09 09:52:26;;;;;;;4.75;1.50;;;;;;;36.94;17.46;98540.72;5073148;28;20035;-85
2021/09/09 09:54:53;;;;;;;1.45;1.33;;;;;;;37.01;18.65;98535.31;5072729;28;20032;-85
2021/09/09 09:57:21;;;;;;;1.33;1.20;;;;;;;37.31;17.91;98539.34;5073053;28;20115;-85
2021/09/09 09:59:47;;;;;;;1.58;1.20;;;;;;;37.69;16.65;98535.06;5072173;28;20021;-85
2021/09/09 10:02:14;;;;;;;2.20;1.50;;;;;;;37.38;17.24;98536.03;5073068;28;20396;-85
2021/09/09 10:04:46;;;;;;;1.52;1.42;;;;;;;37.26;17.96;98525.78;5073176;28;20028;-85
2021/09/09 10:07:14;;;;;;;1.52;1.23;;;;;;;35.26;21.05;98522.47;5072956;28;20094;-85
2021/09/09 10:09:41;;;;;;;1.20;1.10;;;;;;;36.27;18.38;98522.28;5072537;28;20036;-85
2021/09/09 10:12:08;;;;;;;1.45;1.27;;;;;;;36.78;19.39;98525.00;5072752;28;20052;-85
2021/09/09 10:14:39;;;;;;;4.22;1.48;;;;;;;37.80;17.61;98517.91;5055169;28;20614;-85
2021/09/09 10:17:07;;;;;;;1.52;1.25;;;;;;;38.30;16.78;98515.09;5060905;28;20045;-85
2021/09/09 10:19:35;;;;;;;1.60;1.50;;;;;;;38.56;17.45;98514.81;5052800;28;20053;-85
2021/09/09 10:22:11;;;;;;;2.05;1.60;;;;;;;38.20;16.78;98507.25;5035017;28;20128;-85
2021/09/09 10:24:40;;;;;;;2.25;1.25;;;;;;;38.07;16.88;98513.50;5063785;28;20035;-85
2021/09/09 10:27:32;;;;;;;1.55;1.45;;;;;;;38.39;16.34;98505.47;5058707;28;20032;-86
2021/09/09 10:30:00;;;;;;;1.95;1.15;;;;;;;38.86;16.32;98503.56;5048342;28;20392;-85
2021/09/09 10:32:29;;;;;;;2.53;1.52;;;;;;;39.00;15.08;98508.22;5058192;28;20051;-85
2021/09/09 10:35:14;;;;;;;1.40;1.30;;;;;;;38.16;15.43;98498.13;5076535;28;20520;-86
2021/09/09 10:37:50;;;;;;;1.23;1.10;;;;;;;38.63;16.23;98502.78;5076999;28;20036;-86
2021/09/09 10:40:31;;;;;;;3.08;1.20;;;;;;;38.79;16.44;98502.00;5076946;28;20443;-86
2021/09/09 10:43:11;;;;;;;1.08;0.98;;;;;;;39.00;15.73;98496.75;5062454;28;20056;-85
2021/09/09 10:45:41;;;;;;;1.52;1.23;;;;;;;37.57;16.67;98498.28;5089912;28;20112;-85
2021/09/09 10:48:25;;;;;;;1.27;1.05;;;;;;;38.07;17.19;98501.28;5075539;28;20115;-86
2021/09/09 10:51:04;;;;;;;1.10;1.00;;;;;;;38.47;16.91;98497.88;5075923;28;20029;-85
2021/09/09 10:53:53;;;;;;;1.30;1.20;;;;;;;38.07;16.70;98493.44;5074945;28;20059;-86
2021/09/09 10:56:23;;;;;;;1.25;1.08;;;;;;;38.43;15.52;98488.75;5058277;28;20148;-86
2021/09/09 10:59:23;;;;;;;2.92;1.05;;;;;;;38.09;16.99;98487.94;5075627;28;20033;-86
2021/09/09 11:01:49;;;;;;;1.30;0.88;;;;;;;38.80;16.30;98488.44;5063439;28;20044;-86
2021/09/09 11:04:37;;;;;;;0.95;0.90;;;;;;;38.97;15.77;98486.28;5064370;28;20033;-85
2021/09/09 11:07:18;;;;;;;0.88;0.88;;;;;;;38.80;15.62;98474.88;5075439;28;20037;-85
2021/09/09 11:09:44;;;;;;;1.50;1.40;;;;;;;38.36;15.15;98484.31;5075975;28;20082;-86
2021/09/09 11:12:10;;;;;;;1.13;1.02;;;;;;;38.48;16.14;98477.28;5076017;28;20059;-85
2021/09/09 11:14:36;;;;;;;2.83;1.10;;;;;;;38.53;14.64;98467.84;5075370;28;20033;-85
2021/09/09 11:17:02;;;;;;;1.85;1.15;;;;;;;38.16;15.39;98472.31;5074342;28;20039;-86
2021/09/09 11:19:29;;;;;;;2.17;1.20;;;;;;;37.17;17.82;98474.47;5075480;28;20055;-86
2021/09/09 11:22:00;;;;;;;1.20;1.10;;;;;;;37.02;15.60;98468.13;5075205;28;20056;-86
2021/09/09 11:24:27;;;;;;;1.17;0.95;;;;;;;36.88;15.98;98471.94;5075377;28;20037;-86
2021/09/09 11:26:53;;;;;;;1.42;0.95;;;;;;;38.00;16.40;98463.19;5075481;28;20036;-86
2021/09/09 11:29:24;;;;;;;1.38;1.05;;;;;;;38.26;15.69;98465.78;5075475;28;20074;-86
2021/09/09 11:31:57;;;;;;;1.48;1.15;;;;;;;38.44;14.76;98464.50;5075384;28;20044;-86
2021/09/09 11:34:26;;;;;;;1.13;0.90;;;;;;;38.47;14.34;98460.56;5075209;28;20028;-86
2021/09/09 11:36:53;;;;;;;0.77;0.75;;;;;;;38.36;15.09;98467.13;5074384;28;20082;-86